Thursday, July 19, 2018, 5:53 AM GMT
Back to Local

CXCH, Cheticamp, N. S.

Location: , , Canada Lat: 46.65
Local Time: 5:53 AM GMT ( 5:53 GMT) Lon: -60.95
Time Zone: GMT Elev: 144 ft

Show me the last for .
Show Coded

Time T Td Feel RH Dir Speed Gust Alt SLP Vis Weather Sky Remarks
2018-07-19 05:00 63 62 - 96 - - - - - 0 None
2018-07-19 04:00 63 62 - 96 - - - - - 0 None
2018-07-19 03:00 63 62 - 96 - - - - - 0 None
2018-07-19 02:00 65 63 - 95 - - - - - 0 None
2018-07-19 01:00 65 64 - 95 - - - - - 0 1-hr Precip Total: 0.21"
2018-07-19 00:00 67 64 - 89 - - - - - 0 None
2018-07-18 23:00 67 65 - 93 - - - - - 0 None
2018-07-18 22:00 72 68 76 87 - - - - - 0 None
2018-07-18 21:00 73 68 77 83 - - - - - 0 None
2018-07-18 20:00 75 69 78 83 - - - - - 0 None
2018-07-18 19:00 74 69 78 82 - - - - - 0 None
2018-07-18 18:00 80 68 83 68 - - - - - 0 None
2018-07-18 17:00 81 68 84 64 - - - - - 0 None
2018-07-18 16:00 77 68 80 72 - - - - - 0 None
2018-07-18 15:00 78 70 81 77 - - - - - 0 None
2018-07-18 14:00 75 69 79 82 - - - - - 0 1-hr Precip Total: 0.05"
2018-07-18 13:00 73 67 77 80 - - - - - 0 1-hr Precip Total: 0.04"
2018-07-18 12:00 73 67 77 82 - - - - - 0 None
2018-07-18 11:00 76 67 79 74 - - - - - 0 None
2018-07-18 10:00 76 66 79 71 - - - - - 0 None
2018-07-18 09:00 75 66 78 73 - - - - - 0 None
2018-07-18 08:00 74 65 77 74 - - - - - 0 None
2018-07-18 07:00 72 65 76 79 - - - - - 0 None
2018-07-18 06:00 71 65 76 79 - - - - - 0 None

Support USWX by starting your Amazon purchase here.